createdAt,value
2023-04-25T00:00:52.448Z,6.42
2023-04-25T00:08:51.906Z,6.40
2023-04-25T00:12:51.630Z,6.32
2023-04-25T00:16:52.392Z,6.25
2023-04-25T00:20:51.102Z,6.20
2023-04-25T00:24:53.263Z,6.11
2023-04-25T00:28:51.157Z,6.06
2023-04-25T00:32:51.265Z,5.98
2023-04-25T00:36:51.176Z,5.94
2023-04-25T00:40:51.302Z,5.87
2023-04-25T00:44:52.482Z,5.82
2023-04-25T00:48:51.245Z,5.76
2023-04-25T00:52:51.592Z,5.66
2023-04-25T00:56:51.513Z,5.61
2023-04-25T01:00:52.010Z,5.53
2023-04-25T01:04:51.273Z,5.51
2023-04-25T01:08:51.764Z,5.52
2023-04-25T01:16:53.005Z,5.48
2023-04-25T01:24:52.051Z,5.42
2023-04-25T01:28:51.867Z,5.37
2023-04-25T01:32:52.532Z,5.29
2023-04-25T01:36:52.718Z,5.26
2023-04-25T01:40:51.962Z,5.23
2023-04-25T01:44:51.416Z,5.18
2023-04-25T01:48:51.603Z,5.05
2023-04-25T01:52:51.406Z,5.06
2023-04-25T01:56:51.623Z,4.98
2023-04-25T02:00:51.258Z,4.94
2023-04-25T02:04:51.628Z,4.95
2023-04-25T02:08:51.481Z,4.91
2023-04-25T02:12:51.539Z,4.88
2023-04-25T02:16:52.288Z,4.83
2023-04-25T02:20:51.790Z,4.81
2023-04-25T02:24:51.378Z,4.77
2023-04-25T02:28:51.810Z,4.75
2023-04-25T02:32:51.694Z,4.72
2023-04-25T02:36:51.884Z,4.70
2023-04-25T02:40:51.429Z,4.63
2023-04-25T02:44:51.474Z,4.61
2023-04-25T02:48:51.433Z,4.58
2023-04-25T02:52:51.542Z,4.56
2023-04-25T02:56:51.436Z,4.53
2023-04-25T03:00:51.716Z,4.50
2023-04-25T03:04:51.780Z,4.46
2023-04-25T03:08:51.626Z,4.49
2023-04-25T03:12:51.568Z,4.51
2023-04-25T03:16:51.689Z,4.40
2023-04-25T03:20:51.572Z,4.37
2023-04-25T03:24:51.865Z,4.36
2023-04-25T03:28:51.677Z,4.35
2023-04-25T03:32:51.724Z,4.28
2023-04-25T03:48:51.713Z,4.24
2023-04-25T03:52:51.622Z,4.18
2023-04-25T03:56:51.941Z,4.17
2023-04-25T04:00:51.602Z,4.16
2023-04-25T04:04:52.027Z,4.14
2023-04-25T04:16:52.211Z,4.09
2023-04-25T04:20:51.717Z,4.03
2023-04-25T04:24:52.136Z,4.04
2023-04-25T04:28:54.152Z,4.05
2023-04-25T04:32:52.333Z,4.03
2023-04-25T04:36:51.807Z,3.98
2023-04-25T04:44:52.223Z,3.88
2023-04-25T04:48:52.987Z,3.82
2023-04-25T04:52:52.002Z,3.71
2023-04-25T04:56:52.435Z,3.67
2023-04-25T05:00:51.909Z,3.66
2023-04-25T05:08:52.746Z,3.71
2023-04-25T05:12:51.848Z,3.65
2023-04-25T05:16:52.147Z,3.64
2023-04-25T05:20:53.351Z,3.66
2023-04-25T05:28:51.949Z,3.64
2023-04-25T05:32:52.328Z,3.60
2023-04-25T05:36:51.854Z,3.57
2023-04-25T05:40:52.352Z,3.54
2023-04-25T05:44:51.932Z,3.44
2023-04-25T05:48:52.108Z,3.47
2023-04-25T05:56:52.074Z,3.48
2023-04-25T06:00:52.410Z,3.51
2023-04-25T06:04:52.929Z,3.56
2023-04-25T06:08:51.959Z,3.68
2023-04-25T06:12:52.161Z,3.79
2023-04-25T06:16:51.936Z,3.87
2023-04-25T06:20:52.114Z,3.97
2023-04-25T06:24:52.332Z,4.04
2023-04-25T06:28:52.158Z,4.08
2023-04-25T06:32:52.979Z,4.11
2023-04-25T06:36:52.201Z,4.16
2023-04-25T06:40:52.321Z,4.20
2023-04-25T06:44:52.056Z,4.24
2023-04-25T06:48:52.732Z,4.28
2023-04-25T06:52:52.139Z,4.31
2023-04-25T06:56:52.310Z,4.35
2023-04-25T07:00:52.394Z,4.47
2023-04-25T07:04:52.340Z,4.54
2023-04-25T07:08:52.659Z,4.62
2023-04-25T07:12:52.259Z,4.73
2023-04-25T07:16:52.302Z,4.82
2023-04-25T07:20:52.378Z,4.87
2023-04-25T07:24:53.207Z,4.91
2023-04-25T07:28:52.471Z,5.00
2023-04-25T07:32:52.364Z,5.11
2023-04-25T07:36:52.600Z,5.29
2023-04-25T07:40:52.500Z,5.43
2023-04-25T07:44:52.410Z,5.54
2023-04-25T07:48:52.632Z,5.65
2023-04-25T07:52:52.373Z,5.73
2023-04-25T07:56:53.618Z,5.80
2023-04-25T08:00:52.281Z,5.91
2023-04-25T08:04:52.563Z,6.00
2023-04-25T08:08:52.967Z,6.12
2023-04-25T08:12:52.270Z,6.21
2023-04-25T08:16:52.623Z,6.32
2023-04-25T08:20:52.385Z,6.39
2023-04-25T08:24:52.365Z,6.44
2023-04-25T08:28:52.955Z,6.45
2023-04-25T08:32:52.457Z,6.49
2023-04-25T08:36:52.504Z,6.55
2023-04-25T08:40:55.380Z,6.68
2023-04-25T08:44:53.848Z,6.74
2023-04-25T08:48:57.898Z,6.79
2023-04-25T08:52:54.324Z,6.89
2023-04-25T08:56:54.902Z,6.93
2023-04-25T09:00:53.014Z,6.94
2023-04-25T09:04:54.659Z,7.01
2023-04-25T09:08:52.522Z,7.09
2023-04-25T09:13:03.837Z,7.11
2023-04-25T09:17:02.775Z,7.17
2023-04-25T09:24:52.493Z,7.38
2023-04-25T09:29:05.040Z,7.52
2023-04-25T09:32:56.883Z,7.59
2023-04-25T09:36:55.265Z,7.71
2023-04-25T09:40:52.696Z,7.78
2023-04-25T09:44:54.579Z,7.82
2023-04-25T09:48:53.801Z,7.91
2023-04-25T09:53:02.953Z,8.02
2023-04-25T09:56:53.951Z,8.15
2023-04-25T10:00:54.735Z,8.19
2023-04-25T10:04:54.809Z,8.18
2023-04-25T10:08:55.757Z,8.27
2023-04-25T10:12:53.258Z,8.36
2023-04-25T10:16:53.742Z,8.46
2023-04-25T10:20:54.530Z,8.65
2023-04-25T10:24:53.269Z,8.76
2023-04-25T10:28:56.889Z,8.97
2023-04-25T10:32:55.085Z,9.16
2023-04-25T10:36:53.072Z,9.24
2023-04-25T10:41:03.052Z,9.30
2023-04-25T10:45:02.824Z,9.29
2023-04-25T10:48:54.353Z,9.33
2023-04-25T10:52:53.618Z,9.20
2023-04-25T10:56:53.545Z,9.05
2023-04-25T11:00:57.561Z,9.04
2023-04-25T11:04:53.821Z,9.12
2023-04-25T11:08:53.229Z,9.35
2023-04-25T11:12:53.343Z,9.59
2023-04-25T11:16:53.253Z,9.57
2023-04-25T11:20:52.904Z,9.51
2023-04-25T11:24:53.162Z,9.50
2023-04-25T11:28:57.427Z,9.51
2023-04-25T11:32:53.183Z,9.68
2023-04-25T11:36:53.344Z,9.97
2023-04-25T11:40:53.265Z,10.04
2023-04-25T11:44:52.932Z,9.99
2023-04-25T11:48:56.347Z,9.97
2023-04-25T11:52:56.860Z,9.99
2023-04-25T11:56:53.140Z,10.08
2023-04-25T12:00:53.155Z,10.14
2023-04-25T12:04:53.520Z,10.12
2023-04-25T12:09:03.313Z,10.11
2023-04-25T12:12:54.015Z,10.12
2023-04-25T12:16:55.881Z,10.40
2023-04-25T12:20:53.326Z,10.73
2023-04-25T12:24:53.863Z,10.96
2023-04-25T12:28:53.792Z,11.28
2023-04-25T12:32:53.152Z,11.39
2023-04-25T12:36:53.225Z,11.32
2023-04-25T12:40:54.371Z,11.19
2023-04-25T12:44:53.147Z,11.04
2023-04-25T12:48:53.331Z,10.96
2023-04-25T12:52:53.357Z,10.89
2023-04-25T12:56:53.432Z,10.78
2023-04-25T13:00:53.511Z,10.79
2023-04-25T13:04:53.150Z,10.78
2023-04-25T13:08:53.486Z,10.89
2023-04-25T13:12:53.361Z,11.01
2023-04-25T13:20:53.702Z,10.99
2023-04-25T13:28:53.255Z,10.94
2023-04-25T13:32:56.252Z,10.91
2023-04-25T13:36:53.287Z,10.77
2023-04-25T13:40:53.402Z,10.71
2023-04-25T13:44:53.350Z,10.50
2023-04-25T13:48:59.642Z,10.52
2023-04-25T13:52:53.495Z,10.60
2023-04-25T13:56:58.477Z,10.62
2023-04-25T14:00:53.772Z,10.67
2023-04-25T14:04:53.366Z,10.74
2023-04-25T14:08:54.472Z,10.60
2023-04-25T14:12:53.323Z,10.66
2023-04-25T14:16:54.223Z,10.86
2023-04-25T14:20:53.302Z,11.07
2023-04-25T14:24:53.489Z,11.18
2023-04-25T14:28:53.346Z,11.28
2023-04-25T14:32:53.985Z,11.39
2023-04-25T14:40:54.006Z,11.41
2023-04-25T14:44:53.349Z,11.44
2023-04-25T14:48:55.843Z,11.47
2023-04-25T14:52:53.597Z,11.51
2023-04-25T14:56:53.568Z,11.56
2023-04-25T15:00:53.506Z,11.69
2023-04-25T15:04:53.615Z,11.81
2023-04-25T15:08:53.417Z,12.15
2023-04-25T15:12:53.636Z,12.11
2023-04-25T15:16:53.456Z,11.94
2023-04-25T15:20:53.904Z,11.89
2023-04-25T15:24:54.545Z,11.90
2023-04-25T15:28:53.753Z,11.84
2023-04-25T15:32:53.565Z,11.90
2023-04-25T15:36:53.708Z,12.03
2023-04-25T15:40:53.492Z,12.09
2023-04-25T15:44:53.593Z,12.08
2023-04-25T15:48:53.828Z,12.07
2023-04-25T15:52:53.684Z,12.10
2023-04-25T15:56:53.578Z,12.32
2023-04-25T16:00:54.678Z,12.81
2023-04-25T16:04:53.811Z,13.09
2023-04-25T16:08:54.176Z,12.99
2023-04-25T16:12:53.727Z,12.87
2023-04-25T16:16:53.800Z,12.78
2023-04-25T16:20:53.665Z,13.03
2023-04-25T16:24:53.749Z,13.28
2023-04-25T16:28:54.047Z,13.46
2023-04-25T16:32:56.030Z,13.62
2023-04-25T16:36:56.178Z,13.80
2023-04-25T16:40:53.814Z,13.92
2023-04-25T16:44:53.738Z,14.07
2023-04-25T16:48:53.790Z,14.06
2023-04-25T16:52:53.719Z,13.98
2023-04-25T16:56:53.908Z,13.94
2023-04-25T17:00:53.928Z,13.99
2023-04-25T17:04:54.016Z,14.33
2023-04-25T17:08:54.599Z,14.70
2023-04-25T17:12:54.029Z,14.96
2023-04-25T17:16:54.117Z,14.90
2023-04-25T17:20:54.668Z,14.98
2023-04-25T17:24:53.847Z,14.84
2023-04-25T17:28:54.186Z,14.61
2023-04-25T17:32:54.243Z,14.23
2023-04-25T17:36:53.945Z,13.92
2023-04-25T17:40:54.100Z,13.66
2023-04-25T17:44:54.611Z,13.44
2023-04-25T17:48:54.636Z,13.25
2023-04-25T17:52:54.112Z,13.09
2023-04-25T17:56:54.130Z,13.03
2023-04-25T18:00:54.038Z,13.23
2023-04-25T18:04:54.485Z,13.43
2023-04-25T18:08:56.048Z,13.48
2023-04-25T18:12:54.305Z,13.46
2023-04-25T18:16:54.228Z,13.34
2023-04-25T18:20:54.056Z,13.06
2023-04-25T18:24:54.260Z,12.88
2023-04-25T18:28:54.298Z,12.75
2023-04-25T18:32:54.465Z,12.64
2023-04-25T18:36:55.262Z,12.53
2023-04-25T18:40:58.152Z,12.46
2023-04-25T18:44:54.059Z,12.35
2023-04-25T18:48:54.667Z,12.23
2023-04-25T18:52:54.020Z,12.14
2023-04-25T18:56:56.288Z,12.05
2023-04-25T19:00:54.400Z,11.94
2023-04-25T19:04:54.343Z,11.85
2023-04-25T19:08:56.452Z,11.71
2023-04-25T19:12:54.701Z,11.58
2023-04-25T19:16:54.287Z,11.44
2023-04-25T19:20:54.370Z,11.33
2023-04-25T19:25:06.699Z,11.21
2023-04-25T19:29:05.102Z,11.07
2023-04-25T19:32:55.685Z,10.97
2023-04-25T19:36:54.741Z,10.86
2023-04-25T19:40:54.212Z,10.80
2023-04-25T19:44:54.532Z,10.69
2023-04-25T19:48:54.461Z,10.52
2023-04-25T19:52:55.175Z,10.36
2023-04-25T19:56:54.332Z,10.21
2023-04-25T20:00:56.520Z,10.10
2023-04-25T20:04:54.249Z,9.97
2023-04-25T20:08:54.501Z,9.88
2023-04-25T20:12:54.504Z,9.83
2023-04-25T20:16:54.456Z,9.80
2023-04-25T20:20:54.329Z,9.77
2023-04-25T20:24:54.420Z,9.71
2023-04-25T20:28:54.759Z,9.64
2023-04-25T20:32:54.539Z,9.59
2023-04-25T20:36:55.178Z,9.57
2023-04-25T20:40:55.489Z,9.52
2023-04-25T20:44:55.138Z,9.45
2023-04-25T20:48:54.974Z,9.37
2023-04-25T20:52:54.418Z,9.31
2023-04-25T20:56:54.917Z,9.25
2023-04-25T21:00:55.398Z,9.18
2023-04-25T21:04:54.599Z,9.16
2023-04-25T21:08:54.675Z,9.13
2023-04-25T21:12:55.591Z,9.06
2023-04-25T21:16:54.643Z,8.96
2023-04-25T21:20:54.806Z,8.87
2023-04-25T21:24:56.084Z,8.80
2023-04-25T21:28:54.928Z,8.71
2023-04-25T21:32:55.278Z,8.61
2023-04-25T21:36:55.428Z,8.52
2023-04-25T21:40:54.524Z,8.46
2023-04-25T21:44:55.108Z,8.38
2023-04-25T21:48:55.110Z,8.30
2023-04-25T21:52:57.887Z,8.25
2023-04-25T21:56:56.131Z,8.17
2023-04-25T22:00:55.245Z,8.11
2023-04-25T22:04:54.649Z,8.10
2023-04-25T22:08:54.965Z,8.11
2023-04-25T22:12:54.961Z,8.14
2023-04-25T22:16:54.966Z,8.18
2023-04-25T22:24:55.363Z,8.20
2023-04-25T22:28:55.082Z,8.18
2023-04-25T22:32:54.865Z,8.13
2023-04-25T22:36:54.864Z,8.08
2023-04-25T22:40:54.902Z,8.03
2023-04-25T22:44:54.659Z,7.98
2023-04-25T22:48:54.977Z,7.95
2023-04-25T22:52:54.908Z,7.98
2023-04-25T22:56:55.419Z,7.99
2023-04-25T23:00:54.827Z,7.98
2023-04-25T23:04:55.086Z,7.96
2023-04-25T23:08:55.084Z,7.95
2023-04-25T23:12:57.053Z,7.92
2023-04-25T23:16:54.817Z,7.89
2023-04-25T23:20:54.984Z,7.91
2023-04-25T23:24:54.887Z,7.92
2023-04-25T23:32:54.892Z,7.89
2023-04-25T23:36:55.136Z,7.88
2023-04-25T23:40:55.240Z,7.84
2023-04-25T23:44:54.962Z,7.78
2023-04-25T23:48:55.037Z,7.73
2023-04-25T23:52:54.966Z,7.70
2023-04-25T23:56:54.987Z,7.67
